Main page
METAR-TAF:

METAR-TAF

Airports :

Pécs, Hungary

Pécs-Pogány International Airport

latitude: 46-06N, longitude: 018-14E, elevation: 201 m

Current weather observation

The report was made 38 minutes ago, at 08:15 UTC
Wind 5 kt from the West/Northwest
Temperature 17°C
Humidity 82%
Pressure 1011 hPa
Visibility 10 km or more
Scattered clouds at a height of 1600 ft
Overcast at a height of 8300 ft

METAR: LHPP 270815Z 30005KT 9999 SCT016 OVC083 17/14 Q1011

Time: 10:53 (08:53 UTC)

Forecast

The report was made 38 minutes ago, at 08:15 UTC
Forecast valid from 27 at 09 UTC to 27 at 18 UTC
Wind 8 kt from the West/Northwest
Visibility 10 km or more
Scattered clouds at a height of 2500 ft
Overcast at a height of 8000 ft
Temporary
from 27 at 09 UTC to 27 at 15 UTC
Wind 12 kt from the Northwest with gusts up to 22 kt
Visibility: 5000 m
Broken clouds at a height of 1000 ft
Overcast at a height of 3000 ft
rain, rain showers

TAF: LHPP 270815Z 2709/2718 30008KT 9999 SCT025 OVC080 TEMPO 2709/2715 31012G22KT 5000 RA SHRA BKN010 OVC030

Weather observations and forecasts of more than 4000 airports (METAR and TAF reports).

The available stations are represented by yellow and red dots on the map.

Hover mouse over dot to see the name of the station.

Then click to see weather observations and forecasts.

To change the map : click on the green buttons with a black cross to zoom in, on the green button with a dash to zoom out, or on the green arrows for adjacent maps.


METAR-TAF: